Time;durP1;ratioP1;P1;durP2;ratioP2;P2;SDS_P1;SDS_P2;PMS_P1;PMS_P2;Temp;Humidity;BMP_temperature;BMP_pressure;BME280_temperature;BME280_humidity;BME280_pressure;Samples;Min_cycle;Max_cycle;Signal;HPM_P1;HPM_P2
2023/10/04 00:02:09;;;;;;;4.83;1.80;;;20.20;99.90;;;;;;5091294;28;20171;-88
2023/10/04 00:04:39;;;;;;;3.73;2.10;;;20.20;99.90;;;;;;5077983;28;20199;-88
2023/10/04 00:07:07;;;;;;;3.00;2.00;;;20.10;99.90;;;;;;5089954;28;20740;-89
2023/10/04 00:09:33;;;;;;;3.43;2.30;;;20.10;99.90;;;;;;5078290;28;20167;-89
2023/10/04 00:12:02;;;;;;;3.53;2.20;;;20.20;99.90;;;;;;5088581;28;20167;-89
2023/10/04 00:14:27;;;;;;;2.43;1.73;;;20.20;99.90;;;;;;5089518;28;20273;-89
2023/10/04 00:16:59;;;;;;;2.83;1.90;;;20.20;99.90;;;;;;5071534;28;20314;-88
2023/10/04 00:19:28;;;;;;;4.03;2.07;;;20.20;99.90;;;;;;5078185;28;20198;-89
2023/10/04 00:21:57;;;;;;;3.00;1.90;;;20.10;99.90;;;;;;5074372;28;20218;-88
2023/10/04 00:24:23;;;;;;;2.20;1.70;;;20.10;99.90;;;;;;5075251;28;20614;-88
2023/10/04 00:26:52;;;;;;;2.70;1.83;;;20.10;99.90;;;;;;5077499;28;20199;-88
2023/10/04 00:29:19;;;;;;;2.90;2.07;;;20.10;99.90;;;;;;5075448;28;20179;-88
2023/10/04 00:31:47;;;;;;;2.73;1.80;;;20.10;99.90;;;;;;5084577;28;20243;-88
2023/10/04 00:34:12;;;;;;;2.67;1.90;;;20.10;99.90;;;;;;5089151;28;20175;-88
2023/10/04 00:36:43;;;;;;;2.23;1.60;;;20.10;99.90;;;;;;5085644;28;20208;-88
2023/10/04 00:42:31;;;;;;;3.57;1.90;;;20.10;99.90;;;;;;5079592;28;20174;-88
2023/10/04 00:44:58;;;;;;;3.30;1.90;;;20.10;99.90;;;;;;5083957;28;20266;-88
2023/10/04 00:47:24;;;;;;;2.90;1.90;;;20.10;99.90;;;;;;5082669;28;20167;-88
2023/10/04 00:49:52;;;;;;;2.97;1.70;;;20.10;99.90;;;;;;5083781;28;20220;-88
2023/10/04 00:52:21;;;;;;;2.97;1.90;;;20.10;99.90;;;;;;5079356;28;20195;-88
2023/10/04 00:54:50;;;;;;;3.20;1.87;;;20.10;99.90;;;;;;5072565;28;20210;-88
2023/10/04 00:57:16;;;;;;;2.70;1.87;;;20.10;99.90;;;;;;5081118;28;20182;-88
2023/10/04 00:59:42;;;;;;;3.13;1.80;;;20.00;99.90;;;;;;5079671;28;20168;-88
2023/10/04 01:02:09;;;;;;;2.67;1.60;;;20.00;99.90;;;;;;5083195;28;20235;-88
2023/10/04 01:04:37;;;;;;;3.03;2.00;;;20.00;99.90;;;;;;5073030;28;20176;-88
2023/10/04 01:07:04;;;;;;;3.50;2.23;;;20.00;99.90;;;;;;5081059;28;20248;-88
2023/10/04 01:09:31;;;;;;;2.83;2.00;;;20.00;99.90;;;;;;5093855;28;20167;-88
2023/10/04 01:11:58;;;;;;;3.07;1.80;;;20.00;99.90;;;;;;5087209;28;20249;-88
2023/10/04 01:14:32;;;;;;;2.37;1.70;;;20.00;99.90;;;;;;5074076;28;20176;-88
2023/10/04 01:16:58;;;;;;;3.83;1.90;;;19.90;99.90;;;;;;5085002;28;20564;-88
2023/10/04 01:19:26;;;;;;;2.43;1.90;;;19.90;99.90;;;;;;5071883;28;20172;-88
2023/10/04 01:21:56;;;;;;;3.60;2.17;;;19.90;99.90;;;;;;5083026;28;20166;-88
2023/10/04 01:24:21;;;;;;;2.67;2.07;;;19.90;99.90;;;;;;5071385;28;20186;-88
2023/10/04 01:26:47;;;;;;;2.83;1.80;;;19.90;99.90;;;;;;5080499;28;20203;-88
2023/10/04 01:29:15;;;;;;;2.57;1.67;;;19.90;99.90;;;;;;5074201;28;20348;-88
2023/10/04 01:31:44;;;;;;;3.33;1.57;;;19.90;99.90;;;;;;5078446;28;20163;-88
2023/10/04 01:34:13;;;;;;;3.43;1.60;;;19.90;99.90;;;;;;5076575;28;20250;-89
2023/10/04 01:36:39;;;;;;;3.73;1.97;;;19.90;99.90;;;;;;5075274;28;20453;-88
2023/10/04 01:39:15;;;;;;;3.10;1.80;;;19.90;99.90;;;;;;5077955;28;20191;-88
2023/10/04 01:41:41;;;;;;;2.20;1.70;;;19.90;99.90;;;;;;5075039;28;20175;-88
2023/10/04 01:44:09;;;;;;;3.20;1.80;;;19.90;99.90;;;;;;5082002;28;20193;-89
2023/10/04 01:46:38;;;;;;;2.43;1.70;;;19.90;99.90;;;;;;5089295;28;20465;-89
2023/10/04 01:49:09;;;;;;;4.67;1.90;;;19.80;99.90;;;;;;5072202;28;20180;-88
2023/10/04 01:51:35;;;;;;;3.73;1.50;;;19.80;99.90;;;;;;5074894;28;20611;-88
2023/10/04 01:54:05;;;;;;;3.00;1.87;;;19.80;99.90;;;;;;5084185;28;20259;-88
2023/10/04 01:56:31;;;;;;;2.73;2.00;;;19.80;99.90;;;;;;5071346;28;20178;-88
2023/10/04 01:58:57;;;;;;;2.53;1.77;;;19.80;99.90;;;;;;5094369;22;20238;-9
2023/10/04 02:01:38;;;;;;;4.03;1.80;;;19.80;99.90;;;;;;5093775;28;20182;-11
2023/10/04 02:04:05;;;;;;;3.33;1.80;;;19.80;99.90;;;;;;5064980;28;20182;-11
2023/10/04 02:06:33;;;;;;;2.90;1.90;;;19.80;99.90;;;;;;5092676;28;20289;-9
2023/10/04 02:09:00;;;;;;;4.63;2.03;;;19.80;99.90;;;;;;5073414;28;20398;-11
2023/10/04 02:11:26;;;;;;;2.67;1.80;;;19.80;99.90;;;;;;5091397;28;20531;-10
2023/10/04 02:13:52;;;;;;;3.33;1.60;;;19.80;99.90;;;;;;5090338;28;20163;-9
2023/10/04 02:16:19;;;;;;;3.50;1.97;;;19.80;99.90;;;;;;5090538;28;20247;-10
2023/10/04 02:18:47;;;;;;;3.93;1.93;;;19.80;99.90;;;;;;5074180;28;20443;-9
2023/10/04 02:21:13;;;;;;;2.67;1.80;;;19.80;99.90;;;;;;5074771;28;20186;-9
2023/10/04 02:23:39;;;;;;;3.07;1.70;;;19.80;99.90;;;;;;5092813;28;20174;-11
2023/10/04 02:26:08;;;;;;;3.07;1.67;;;19.80;99.90;;;;;;5074866;28;20211;-9
2023/10/04 02:28:34;;;;;;;4.73;1.87;;;19.80;99.90;;;;;;5076027;28;20171;-9
2023/10/04 02:31:02;;;;;;;3.10;1.90;;;19.70;99.90;;;;;;5094648;28;20198;-10
2023/10/04 02:33:33;;;;;;;2.70;1.87;;;19.70;99.90;;;;;;5074659;28;20275;-9
2023/10/04 02:36:06;;;;;;;3.43;1.97;;;19.70;99.90;;;;;;5073907;28;20204;-9
2023/10/04 02:38:34;;;;;;;4.47;1.90;;;19.70;99.90;;;;;;5075053;28;20202;-9
2023/10/04 02:41:00;;;;;;;2.47;1.70;;;19.70;99.90;;;;;;5091230;28;20239;-10
2023/10/04 02:43:26;;;;;;;2.97;1.87;;;19.70;99.90;;;;;;5074279;28;20179;-9
2023/10/04 02:45:53;;;;;;;3.60;1.57;;;19.70;99.90;;;;;;5091504;28;20198;-10
2023/10/04 02:48:20;;;;;;;4.40;1.70;;;19.70;99.90;;;;;;5092840;28;20436;-10
2023/10/04 02:50:47;;;;;;;2.27;1.53;;;19.70;99.90;;;;;;5093402;28;20174;-11
2023/10/04 02:53:24;;;;;;;3.90;1.70;;;19.70;99.90;;;;;;5075868;28;20429;-10
2023/10/04 02:55:54;;;;;;;3.23;1.70;;;19.70;99.90;;;;;;5075439;28;20182;-10
2023/10/04 02:58:21;;;;;;;4.30;2.03;;;19.70;99.90;;;;;;5093122;28;20178;-10
2023/10/04 03:00:49;;;;;;;3.37;1.63;;;19.70;99.90;;;;;;5075083;28;20556;-11
2023/10/04 03:03:19;;;;;;;2.83;1.70;;;19.70;99.90;;;;;;5092463;28;20182;-11
2023/10/04 03:05:46;;;;;;;4.37;1.90;;;19.70;99.90;;;;;;5090610;28;20187;-10
2023/10/04 03:08:12;;;;;;;3.10;1.90;;;19.60;99.90;;;;;;5092413;28;20672;-11
2023/10/04 03:10:38;;;;;;;4.13;1.93;;;19.60;99.90;;;;;;5091933;28;20159;-10
2023/10/04 03:16:01;;;;;;;9.57;1.73;;;19.60;99.90;;;;;;5077585;28;20328;-11
2023/10/04 03:18:26;;;;;;;3.10;1.70;;;19.60;99.90;;;;;;5091887;28;20182;-10
2023/10/04 03:23:28;;;;;;;3.10;1.80;;;19.60;99.90;;;;;;5091483;28;20171;-10
2023/10/04 03:25:57;;;;;;;2.63;1.53;;;19.60;99.90;;;;;;5093088;28;20213;-8
2023/10/04 03:28:26;;;;;;;3.03;1.60;;;19.60;99.90;;;;;;5093499;28;20397;-9
2023/10/04 03:30:53;;;;;;;2.43;1.57;;;19.60;99.90;;;;;;5093027;28;20182;-11
2023/10/04 03:33:20;;;;;;;2.67;1.60;;;19.60;99.90;;;;;;5093435;28;20217;-9
2023/10/04 03:35:47;;;;;;;4.13;1.83;;;19.60;99.90;;;;;;5074750;28;20467;-10
2023/10/04 03:38:13;;;;;;;2.20;1.50;;;19.60;99.90;;;;;;5073743;28;20186;-7
2023/10/04 03:40:39;;;;;;;3.53;1.70;;;19.60;99.90;;;;;;5075199;28;20179;-9
2023/10/04 03:43:07;;;;;;;3.17;1.50;;;19.60;99.90;;;;;;5093133;28;20525;-9
2023/10/04 03:45:39;;;;;;;3.40;1.80;;;19.60;99.90;;;;;;5093062;28;20334;-9
2023/10/04 03:48:29;;;;;;;2.63;1.70;;;19.60;99.90;;;;;;5091793;28;20163;-9
2023/10/04 03:50:54;;;;;;;3.17;1.53;;;19.60;99.90;;;;;;5075465;28;20259;-10
2023/10/04 03:53:20;;;;;;;1.97;1.37;;;19.60;99.90;;;;;;5093226;28;20491;-9
2023/10/04 03:55:47;;;;;;;3.40;1.60;;;19.60;99.90;;;;;;5091561;28;20330;-9
2023/10/04 03:58:15;;;;;;;2.87;1.80;;;19.60;99.90;;;;;;5074509;28;20234;-13
2023/10/04 04:00:42;;;;;;;2.63;1.50;;;19.60;99.90;;;;;;5074822;28;20178;-10
2023/10/04 04:03:09;;;;;;;2.20;1.70;;;19.60;99.90;;;;;;5093181;28;20570;-8
2023/10/04 04:05:44;;;;;;;2.43;1.50;;;19.60;99.90;;;;;;5090916;28;20460;-9
2023/10/04 04:08:12;;;;;;;2.87;1.90;;;19.60;99.90;;;;;;5091787;28;20177;-9
2023/10/04 04:10:40;;;;;;;4.67;1.67;;;19.50;99.90;;;;;;5093543;28;20175;-9
2023/10/04 04:13:06;;;;;;;3.23;1.87;;;19.50;99.90;;;;;;5095567;28;20189;-8
2023/10/04 04:15:35;;;;;;;3.60;1.90;;;19.50;99.90;;;;;;5096061;28;20170;-10
2023/10/04 04:18:10;;;;;;;4.73;2.20;;;19.50;99.90;;;;;;5096002;28;20453;-11
2023/10/04 04:20:36;;;;;;;2.53;1.77;;;19.50;99.90;;;;;;5094754;28;20356;-9
2023/10/04 04:23:05;;;;;;;3.87;1.60;;;19.50;99.90;;;;;;5094244;28;20205;-10
2023/10/04 04:25:30;;;;;;;3.17;1.63;;;19.50;99.90;;;;;;5076315;28;20226;-10
2023/10/04 04:27:56;;;;;;;5.00;1.80;;;19.50;99.90;;;;;;5094660;28;20213;-10
2023/10/04 04:30:28;;;;;;;3.87;1.80;;;19.50;99.90;;;;;;5093809;28;20174;-10
2023/10/04 04:32:58;;;;;;;3.87;1.80;;;19.50;99.90;;;;;;5093097;28;20248;-9
2023/10/04 04:38:17;;;;;;;2.80;1.60;;;19.50;99.90;;;;;;5095360;28;20166;-10
2023/10/04 04:40:47;;;;;;;2.97;1.80;;;19.50;99.90;;;;;;5094711;28;20633;-9
2023/10/04 04:45:51;;;;;;;3.77;1.60;;;19.50;99.90;;;;;;5094161;28;20194;-10
2023/10/04 04:48:29;;;;;;;2.87;1.77;;;19.50;99.90;;;;;;5095277;28;20239;-9
2023/10/04 04:51:04;;;;;;;3.73;1.80;;;19.50;99.90;;;;;;5075590;28;20555;-11
2023/10/04 04:53:32;;;;;;;2.07;1.50;;;19.50;99.90;;;;;;5093622;28;20166;-10
2023/10/04 04:56:00;;;;;;;3.20;1.80;;;19.50;99.90;;;;;;5094815;28;20175;-9
2023/10/04 04:58:28;;;;;;;3.20;1.77;;;19.50;99.90;;;;;;5076763;28;20198;-9
2023/10/04 05:01:00;;;;;;;3.93;2.00;;;19.50;99.90;;;;;;5102289;22;20218;-9
2023/10/04 05:03:26;;;;;;;2.67;1.70;;;19.50;99.90;;;;;;5094098;28;20412;-10
2023/10/04 05:05:56;;;;;;;2.50;1.70;;;19.50;99.90;;;;;;5093790;28;20198;-11
2023/10/04 05:08:27;;;;;;;2.60;1.60;;;19.50;99.90;;;;;;5095564;28;20174;-9
2023/10/04 05:10:59;;;;;;;4.30;1.80;;;19.40;99.90;;;;;;5094807;28;20293;-10
2023/10/04 05:13:25;;;;;;;4.33;2.13;;;19.40;99.90;;;;;;5091489;28;20446;-9
2023/10/04 05:15:50;;;;;;;3.70;2.17;;;19.40;99.90;;;;;;5092959;28;20195;-10
2023/10/04 05:18:17;;;;;;;4.17;1.60;;;19.40;99.90;;;;;;5093897;28;20198;-10
2023/10/04 05:20:52;;;;;;;2.80;1.50;;;19.40;99.90;;;;;;5074784;28;20203;-10
2023/10/04 05:23:21;;;;;;;2.60;1.60;;;19.40;99.90;;;;;;5091584;28;20170;-9
2023/10/04 05:25:47;;;;;;;3.03;1.63;;;19.40;99.90;;;;;;5073449;28;20214;-9
2023/10/04 05:28:13;;;;;;;4.07;1.70;;;19.40;99.90;;;;;;5092196;28;20170;-10
2023/10/04 05:30:44;;;;;;;3.30;1.60;;;19.40;99.90;;;;;;5092924;28;20167;-11
2023/10/04 05:33:19;;;;;;;2.90;1.50;;;19.40;99.90;;;;;;5073746;28;20559;-9
2023/10/04 05:35:46;;;;;;;2.53;1.73;;;19.40;99.90;;;;;;5090888;28;20240;-11
2023/10/04 05:38:14;;;;;;;2.40;1.50;;;19.30;99.90;;;;;;5090809;28;20263;-9
2023/10/04 05:40:45;;;;;;;2.80;1.80;;;19.40;99.90;;;;;;5091855;28;20194;-9
2023/10/04 05:43:14;;;;;;;2.77;1.67;;;19.30;99.90;;;;;;5074409;28;20561;-11
2023/10/04 05:45:44;;;;;;;3.57;1.60;;;19.30;99.90;;;;;;5091401;28;20191;-10
2023/10/04 05:48:10;;;;;;;3.67;2.07;;;19.30;99.90;;;;;;5090634;28;20432;-10
2023/10/04 05:50:37;;;;;;;2.60;1.80;;;19.30;99.90;;;;;;5090177;28;20191;-11
2023/10/04 05:53:07;;;;;;;4.53;2.07;;;19.30;99.90;;;;;;5090168;28;20203;-9
2023/10/04 05:55:37;;;;;;;2.93;1.90;;;19.40;99.90;;;;;;5089213;28;20167;-11
2023/10/04 05:58:07;;;;;;;3.57;1.73;;;19.40;99.90;;;;;;5089412;28;20538;-10
2023/10/04 06:00:42;;;;;;;2.43;1.60;;;19.40;99.90;;;;;;5071709;28;20262;-10
2023/10/04 06:03:11;;;;;;;2.83;1.83;;;19.40;99.90;;;;;;5090259;28;20266;-11
2023/10/04 06:05:40;;;;;;;2.93;1.80;;;19.40;99.90;;;;;;5088885;28;20193;-10
2023/10/04 06:08:21;;;;;;;3.67;1.93;;;19.40;99.90;;;;;;5069699;28;20175;-9
2023/10/04 06:10:50;;;;;;;3.50;2.10;;;19.40;99.90;;;;;;5088070;28;20163;-10
2023/10/04 06:13:17;;;;;;;3.97;1.70;;;19.40;99.90;;;;;;5088689;28;20202;-9
2023/10/04 06:15:45;;;;;;;3.77;1.90;;;19.50;99.90;;;;;;5071183;28;20228;-8
2023/10/04 06:18:12;;;;;;;4.47;1.90;;;19.50;99.90;;;;;;5071403;28;20171;-10
2023/10/04 06:20:40;;;;;;;3.47;2.00;;;19.50;99.90;;;;;;5087979;28;20162;-10
2023/10/04 06:23:09;;;;;;;4.20;2.00;;;19.50;99.90;;;;;;5089664;28;20513;-9
2023/10/04 06:25:47;;;;;;;4.90;2.00;;;19.50;99.90;;;;;;5088764;28;20197;-10
2023/10/04 06:28:13;;;;;;;3.07;1.90;;;19.50;99.90;;;;;;5088719;28;20265;-9
2023/10/04 06:30:40;;;;;;;1.83;1.60;;;19.50;99.90;;;;;;5068589;28;20167;-11
2023/10/04 06:33:08;;;;;;;3.73;2.10;;;19.50;99.90;;;;;;5068530;28;20170;-9
2023/10/04 06:35:37;;;;;;;4.30;2.07;;;19.60;99.90;;;;;;5087226;28;20171;-10
2023/10/04 06:38:08;;;;;;;3.43;1.87;;;19.60;99.90;;;;;;5087690;28;20235;-10
2023/10/04 06:40:35;;;;;;;3.80;1.90;;;19.60;99.90;;;;;;5088894;28;20217;-11
2023/10/04 06:43:08;;;;;;;4.37;2.30;;;19.60;99.90;;;;;;5071670;28;20577;-11
2023/10/04 06:45:35;;;;;;;4.97;2.50;;;19.60;99.90;;;;;;5089577;28;20600;-9
2023/10/04 06:48:03;;;;;;;4.37;2.20;;;19.60;99.90;;;;;;5070413;28;20167;-11
2023/10/04 06:50:35;;;;;;;4.70;2.30;;;19.70;99.90;;;;;;5088372;28;20258;-9
2023/10/04 06:53:02;;;;;;;4.77;2.20;;;19.70;99.90;;;;;;5070715;28;20252;-11
2023/10/04 06:55:32;;;;;;;5.23;2.90;;;19.70;99.90;;;;;;5087076;28;20204;-10
2023/10/04 06:57:59;;;;;;;3.60;2.20;;;19.80;99.90;;;;;;5086358;28;20175;-10
2023/10/04 07:00:30;;;;;;;6.27;2.00;;;19.80;99.90;;;;;;5067857;28;20195;-10
2023/10/04 07:03:01;;;;;;;4.50;2.20;;;19.80;99.90;;;;;;5069985;28;20565;-10
2023/10/04 07:05:31;;;;;;;4.97;2.20;;;19.90;99.90;;;;;;5068336;28;20602;-10
2023/10/04 07:07:57;;;;;;;6.87;2.37;;;19.90;99.90;;;;;;5052997;28;20238;-10
2023/10/04 07:10:24;;;;;;;5.53;2.53;;;19.90;99.90;;;;;;5069447;28;20165;-10
2023/10/04 07:12:57;;;;;;;6.67;2.10;;;20.00;99.90;;;;;;5084643;28;20159;-10
2023/10/04 07:15:24;;;;;;;4.83;2.20;;;20.00;99.90;;;;;;5070006;28;20466;-11
2023/10/04 07:17:51;;;;;;;5.70;2.17;;;20.00;99.90;;;;;;5085101;28;20261;-10
2023/10/04 07:20:18;;;;;;;4.93;2.17;;;20.10;99.90;;;;;;5067660;28;20422;-10
2023/10/04 07:23:03;;;;;;;3.50;1.93;;;20.10;99.90;;;;;;5068860;28;20171;-10
2023/10/04 07:25:30;;;;;;;4.70;2.20;;;20.20;99.90;;;;;;5087266;28;20187;-10
2023/10/04 07:28:02;;;;;;;5.30;2.17;;;20.20;99.90;;;;;;5087868;28;20169;-12
2023/10/04 07:30:29;;;;;;;7.83;2.70;;;20.20;99.90;;;;;;5089333;28;20174;-10
2023/10/04 07:32:55;;;;;;;3.40;2.07;;;20.30;99.90;;;;;;5070277;28;20160;-11
2023/10/04 07:35:28;;;;;;;5.47;2.57;;;20.30;99.90;;;;;;5088499;28;20170;-11
2023/10/04 07:37:55;;;;;;;4.40;2.30;;;20.30;99.90;;;;;;5070410;28;20285;-11
2023/10/04 07:40:23;;;;;;;7.73;2.77;;;20.40;99.90;;;;;;5088433;28;20170;-11
2023/10/04 07:42:53;;;;;;;5.93;2.33;;;20.40;99.90;;;;;;5089185;28;20266;-11
2023/10/04 07:45:23;;;;;;;5.97;2.40;;;20.40;99.90;;;;;;5072441;28;20427;-10
2023/10/04 07:47:50;;;;;;;4.90;2.23;;;20.50;99.90;;;;;;5073856;28;20338;-11
2023/10/04 07:50:22;;;;;;;5.30;2.23;;;20.50;99.80;;;;;;5072716;28;20427;-11
2023/10/04 07:52:51;;;;;;;5.30;2.63;;;20.50;99.70;;;;;;5091356;28;20163;-11
2023/10/04 07:55:22;;;;;;;5.27;2.50;;;20.50;99.60;;;;;;5089466;28;20186;-12
2023/10/04 07:57:49;;;;;;;5.00;2.83;;;20.60;99.60;;;;;;5091387;28;20250;-10
2023/10/04 08:00:17;;;;;;;6.30;2.43;;;20.60;99.50;;;;;;5091178;28;20174;-10
2023/10/04 08:02:50;;;;;;;4.30;2.40;;;20.60;99.30;;;;;;5093688;28;20367;-11
2023/10/04 08:05:21;;;;;;;4.90;2.40;;;20.70;99.00;;;;;;5070054;28;20272;-11
2023/10/04 08:07:48;;;;;;;4.37;2.20;;;20.80;99.00;;;;;;5092069;28;20189;-12
2023/10/04 08:10:14;;;;;;;4.27;2.33;;;20.90;98.80;;;;;;5072270;28;20159;-12
2023/10/04 08:12:42;;;;;;;6.13;2.33;;;21.00;98.40;;;;;;5073451;28;20309;-12
2023/10/04 08:15:13;;;;;;;5.70;2.53;;;21.10;98.10;;;;;;5090669;28;20163;-11
2023/10/04 08:17:39;;;;;;;5.23;2.30;;;21.20;97.70;;;;;;5089971;28;20171;-10
2023/10/04 08:20:06;;;;;;;4.37;2.00;;;21.30;97.30;;;;;;5070721;28;20220;-12
2023/10/04 08:22:32;;;;;;;6.60;2.27;;;21.40;97.20;;;;;;5086907;28;20568;-11
2023/10/04 08:24:58;;;;;;;5.93;2.37;;;21.40;97.00;;;;;;5069895;28;20468;-11
2023/10/04 08:27:24;;;;;;;5.70;2.43;;;21.40;96.90;;;;;;5088594;28;20674;-12
2023/10/04 08:29:54;;;;;;;5.90;2.27;;;21.40;96.80;;;;;;5070110;28;20232;-12
2023/10/04 08:32:20;;;;;;;5.17;2.27;;;21.30;97.00;;;;;;5070207;28;20481;-12
2023/10/04 08:34:45;;;;;;;8.23;2.47;;;21.30;97.00;;;;;;5090563;28;20198;-12
2023/10/04 08:37:13;;;;;;;4.50;2.33;;;21.30;97.00;;;;;;5089484;28;20185;-12
2023/10/04 08:39:40;;;;;;;6.37;2.30;;;21.20;97.20;;;;;;5072253;28;20182;-13
2023/10/04 08:42:06;;;;;;;4.40;2.30;;;21.20;97.20;;;;;;5071764;28;20185;-12
2023/10/04 08:44:32;;;;;;;4.57;2.30;;;21.10;97.40;;;;;;5073331;28;20257;-12
2023/10/04 08:47:03;;;;;;;4.27;2.10;;;21.10;97.50;;;;;;5072319;28;20231;-13
2023/10/04 08:49:49;;;;;;;6.33;2.50;;;21.10;97.60;;;;;;5071303;28;20189;-12
2023/10/04 08:52:32;;;;;;;5.57;2.43;;;21.10;97.70;;;;;;5073272;28;20281;-11
2023/10/04 08:55:06;;;;;;;5.40;2.20;;;21.00;97.70;;;;;;5071974;28;20265;-12
2023/10/04 08:57:35;;;;;;;6.50;2.63;;;21.00;97.90;;;;;;5072834;28;20443;-12
2023/10/04 09:00:13;;;;;;;5.63;2.40;;;21.00;97.90;;;;;;5073026;28;20332;-11
2023/10/04 09:02:50;;;;;;;4.00;1.90;;;21.00;97.90;;;;;;5070782;28;20468;-13
2023/10/04 09:05:23;;;;;;;4.27;2.00;;;21.00;97.90;;;;;;5088845;28;20416;-12
2023/10/04 09:07:51;;;;;;;5.27;2.53;;;21.00;97.90;;;;;;5072104;28;20279;-11
2023/10/04 09:10:18;;;;;;;6.17;2.30;;;21.10;97.90;;;;;;5072717;28;20586;-13
2023/10/04 09:12:47;;;;;;;4.73;2.43;;;21.10;97.80;;;;;;5071306;28;20163;-12
2023/10/04 09:15:13;;;;;;;5.87;2.43;;;21.10;97.70;;;;;;5090923;28;20163;-11
2023/10/04 09:17:47;;;;;;;4.40;2.40;;;21.10;97.80;;;;;;5089601;28;20163;-12
2023/10/04 09:20:17;;;;;;;5.20;2.40;;;21.10;97.80;;;;;;5070215;28;20605;-11
2023/10/04 09:22:43;;;;;;;6.17;2.63;;;21.10;97.60;;;;;;5086937;28;20186;-13
2023/10/04 09:25:10;;;;;;;4.73;2.20;;;21.10;97.60;;;;;;5071966;28;20251;-12
2023/10/04 09:27:37;;;;;;;5.17;2.40;;;21.10;97.60;;;;;;5088949;28;20686;-11
2023/10/04 09:30:23;;;;;;;6.80;2.50;;;21.20;97.70;;;;;;5070907;28;20459;-12
2023/10/04 09:32:51;;;;;;;5.27;2.13;;;21.20;97.80;;;;;;5089149;28;20167;-11
2023/10/04 09:35:18;;;;;;;5.07;2.57;;;21.20;97.60;;;;;;5089657;28;20325;-12
2023/10/04 09:37:49;;;;;;;3.40;2.10;;;21.20;97.50;;;;;;5088011;28;20187;-26
2023/10/04 09:40:16;;;;;;;5.97;2.77;;;21.20;97.60;;;;;;5069992;28;20415;-12
2023/10/04 09:42:51;;;;;;;5.43;2.07;;;21.20;97.70;;;;;;5074383;28;20701;-12
2023/10/04 09:45:26;;;;;;;4.57;2.03;;;21.20;97.70;;;;;;5079705;28;20171;-12
2023/10/04 09:47:55;;;;;;;4.27;2.30;;;21.20;97.70;;;;;;5057879;28;20519;-13
2023/10/04 09:50:23;;;;;;;5.83;2.30;;;21.10;97.80;;;;;;5087205;28;20171;-12
2023/10/04 09:52:50;;;;;;;4.50;2.27;;;21.10;97.90;;;;;;5085010;28;20171;-11
2023/10/04 09:55:17;;;;;;;4.47;2.27;;;21.10;97.90;;;;;;5064799;28;20550;-13
2023/10/04 09:57:44;;;;;;;5.80;2.60;;;21.10;98.00;;;;;;5065212;28;20168;-12
2023/10/04 10:00:17;;;;;;;7.00;2.53;;;21.10;98.10;;;;;;5097558;28;20163;-13
2023/10/04 10:02:57;;;;;;;4.77;2.17;;;21.00;98.10;;;;;;5075424;28;20297;-11
2023/10/04 10:05:34;;;;;;;6.40;2.60;;;21.10;98.10;;;;;;5087929;28;20171;-11
2023/10/04 10:08:06;;;;;;;5.00;2.37;;;21.10;98.10;;;;;;5067569;28;20164;-12
2023/10/04 10:10:37;;;;;;;6.63;2.70;;;21.10;98.10;;;;;;5083265;28;20183;-13
2023/10/04 10:13:05;;;;;;;7.23;2.67;;;21.10;98.10;;;;;;5047111;28;20182;-11
2023/10/04 10:15:31;;;;;;;4.40;2.10;;;21.10;98.00;;;;;;5066389;28;20551;-13
2023/10/04 10:17:59;;;;;;;7.93;2.67;;;21.10;98.10;;;;;;5048332;28;20242;-11
2023/10/04 10:20:25;;;;;;;6.80;2.37;;;21.10;98.10;;;;;;5049740;28;20422;-11
2023/10/04 10:23:00;;;;;;;5.47;2.20;;;21.00;98.10;;;;;;5048830;28;20193;-12
2023/10/04 10:25:33;;;;;;;4.50;2.23;;;21.10;98.10;;;;;;5048404;28;20177;-11
2023/10/04 10:28:02;;;;;;;5.10;2.30;;;21.10;98.00;;;;;;5068945;28;20164;-12
2023/10/04 10:30:31;;;;;;;7.00;2.70;;;21.10;97.90;;;;;;5048369;28;20470;-12
2023/10/04 10:32:59;;;;;;;6.20;2.40;;;21.10;97.90;;;;;;5067438;28;20167;-11
2023/10/04 10:35:52;;;;;;;7.63;2.83;;;21.10;97.90;;;;;;5065876;28;20404;-12
2023/10/04 10:38:40;;;;;;;5.63;2.50;;;21.10;97.80;;;;;;5067438;28;20594;-12
2023/10/04 10:41:31;;;;;;;5.60;2.37;;;21.20;97.80;;;;;;5065887;28;20610;-12
2023/10/04 10:44:19;;;;;;;7.43;2.60;;;21.10;97.60;;;;;;5049690;28;20220;-13
2023/10/04 10:46:59;;;;;;;5.77;2.70;;;21.10;97.80;;;;;;5047702;28;20390;-12
2023/10/04 10:49:39;;;;;;;6.77;2.70;;;21.10;97.90;;;;;;5046802;28;20167;-11
2023/10/04 10:52:09;;;;;;;6.73;2.83;;;21.10;97.90;;;;;;5045919;28;20181;-12
2023/10/04 10:54:36;;;;;;;10.60;2.47;;;21.10;98.00;;;;;;5046387;28;20215;-12
2023/10/04 10:57:05;;;;;;;7.80;2.73;;;21.10;97.90;;;;;;5065512;28;20236;-12
2023/10/04 10:59:34;;;;;;;6.43;2.30;;;21.10;98.00;;;;;;5047238;28;20179;-12
2023/10/04 11:02:01;;;;;;;4.40;2.40;;;21.10;98.00;;;;;;5064319;28;20190;-11
2023/10/04 11:04:27;;;;;;;6.00;2.60;;;21.10;98.00;;;;;;5065823;28;20232;-12
2023/10/04 11:06:53;;;;;;;6.50;2.67;;;21.10;98.00;;;;;;5045892;28;20732;-12
2023/10/04 11:09:20;;;;;;;6.37;2.73;;;21.20;98.00;;;;;;5066197;28;20167;-12
2023/10/04 11:11:47;;;;;;;5.33;2.40;;;21.10;98.00;;;;;;5064948;28;20615;-11
2023/10/04 11:14:16;;;;;;;6.73;2.60;;;21.10;97.90;;;;;;5047515;28;20182;-12
2023/10/04 11:16:44;;;;;;;7.83;2.50;;;21.20;98.00;;;;;;5047983;28;20692;-11
2023/10/04 11:19:10;;;;;;;6.07;2.70;;;21.20;97.90;;;;;;5064413;28;20175;-11
2023/10/04 11:21:36;;;;;;;5.53;2.40;;;21.10;97.90;;;;;;5062724;28;20274;-11
2023/10/04 11:24:05;;;;;;;7.07;2.50;;;21.10;97.90;;;;;;5062003;28;20177;-11
2023/10/04 11:26:38;;;;;;;7.80;2.70;;;21.20;97.90;;;;;;5045786;28;20356;-13
2023/10/04 11:29:04;;;;;;;6.37;2.70;;;21.20;97.80;;;;;;5046503;28;20177;-11
2023/10/04 11:31:30;;;;;;;5.07;2.23;;;21.10;97.80;;;;;;5044839;28;20202;-11
2023/10/04 11:33:55;;;;;;;6.30;2.40;;;21.10;97.70;;;;;;5044852;28;20439;-12
2023/10/04 11:36:25;;;;;;;7.23;2.37;;;21.10;97.70;;;;;;5045485;28;20183;-12
2023/10/04 11:38:54;;;;;;;4.67;2.40;;;21.20;97.80;;;;;;5063317;28;20503;-12
2023/10/04 11:41:21;;;;;;;7.50;2.40;;;21.20;97.60;;;;;;5063650;28;20240;-11
2023/10/04 11:43:51;;;;;;;4.63;2.43;;;21.20;97.60;;;;;;5047236;28;20203;-12
2023/10/04 11:46:17;;;;;;;5.23;2.30;;;21.20;97.40;;;;;;5045680;28;20293;-12
2023/10/04 11:48:47;;;;;;;4.43;2.40;;;21.20;97.40;;;;;;5064763;28;20174;-12
2023/10/04 11:51:28;;;;;;;5.60;2.53;;;21.20;97.40;;;;;;5043675;28;20660;-11
2023/10/04 11:53:54;;;;;;;5.27;2.53;;;21.10;97.40;;;;;;5063188;28;20175;-10
2023/10/04 11:56:21;;;;;;;5.63;2.57;;;21.20;97.40;;;;;;5063204;28;20424;-12
2023/10/04 11:58:48;;;;;;;5.23;2.33;;;21.20;97.40;;;;;;5070018;28;20268;-12
2023/10/04 12:01:24;;;;;;;5.43;2.40;;;21.10;97.30;;;;;;5056222;28;20285;-11
2023/10/04 12:03:51;;;;;;;4.67;2.80;;;21.10;97.30;;;;;;5054059;28;20241;-12
2023/10/04 12:06:29;;;;;;;6.00;2.23;;;21.20;97.20;;;;;;5073041;28;20720;-13
2023/10/04 12:08:56;;;;;;;4.20;2.50;;;21.20;97.10;;;;;;5056123;28;20692;-12
2023/10/04 12:11:23;;;;;;;4.17;2.30;;;21.10;97.00;;;;;;5072069;28;20167;-12
2023/10/04 12:13:49;;;;;;;4.93;2.47;;;21.10;97.00;;;;;;5073477;28;20168;-12
2023/10/04 12:16:21;;;;;;;8.67;2.60;;;21.10;97.00;;;;;;5073965;28;20180;-12
2023/10/04 12:18:47;;;;;;;5.67;2.40;;;21.10;96.80;;;;;;5074250;28;20183;-12
2023/10/04 12:21:13;;;;;;;4.27;2.40;;;21.10;96.90;;;;;;5072334;28;20195;-11
2023/10/04 12:23:39;;;;;;;5.43;2.37;;;21.10;96.80;;;;;;5056894;28;20163;-11
2023/10/04 12:26:07;;;;;;;4.40;2.43;;;21.10;96.40;;;;;;5074370;28;20253;-16
2023/10/04 12:28:35;;;;;;;4.37;2.40;;;21.10;96.30;;;;;;5070126;28;20199;-12
2023/10/04 12:31:02;;;;;;;7.63;2.97;;;21.20;96.60;;;;;;5048604;28;20429;-11
2023/10/04 12:33:34;;;;;;;4.53;2.43;;;21.20;95.80;;;;;;5068657;28;20501;-12
2023/10/04 12:35:59;;;;;;;5.10;2.57;;;21.10;96.00;;;;;;5067922;28;20164;-11
2023/10/04 12:38:25;;;;;;;4.00;2.20;;;21.20;96.00;;;;;;5069318;28;20427;-10
2023/10/04 12:40:51;;;;;;;4.87;2.50;;;21.20;96.20;;;;;;5050779;28;20187;-12
2023/10/04 12:43:19;;;;;;;4.53;2.50;;;21.20;95.40;;;;;;5072312;28;20239;-10
2023/10/04 12:45:44;;;;;;;3.47;2.30;;;21.10;95.40;;;;;;5054942;28;20352;-12
2023/10/04 12:48:16;;;;;;;5.27;2.43;;;21.20;96.20;;;;;;5070118;28;20261;-11
2023/10/04 12:50:45;;;;;;;7.90;2.93;;;21.20;95.50;;;;;;5098185;28;20160;-11
2023/10/04 12:53:15;;;;;;;3.90;2.40;;;21.10;95.70;;;;;;5097732;28;20151;-12
2023/10/04 12:55:45;;;;;;;4.97;2.83;;;21.10;95.70;;;;;;5078893;28;20178;-11
2023/10/04 12:58:11;;;;;;;5.00;2.43;;;21.10;95.20;;;;;;5089369;28;20185;-12
2023/10/04 13:00:37;;;;;;;5.00;2.43;;;21.10;95.40;;;;;;5088145;28;20227;-12
2023/10/04 13:03:03;;;;;;;4.10;2.70;;;21.10;95.70;;;;;;5088452;28;20167;-11
2023/10/04 13:05:30;;;;;;;5.33;2.70;;;21.10;95.80;;;;;;5069535;28;20209;-11
2023/10/04 13:07:57;;;;;;;5.33;2.80;;;21.20;95.80;;;;;;5071183;28;20167;-12
2023/10/04 13:10:23;;;;;;;4.93;3.00;;;21.10;95.80;;;;;;5088174;28;20171;-13
2023/10/04 13:12:50;;;;;;;6.73;3.07;;;21.10;95.50;;;;;;5086314;28;20227;-13